메인 페이지
METAR-TAF:

METAR-TAF

공항 :

마이애미 국제공항

마이애미, 플로리다, 미국

위도: 25-47-26N, 경도: 080-18-59W, 고도: 3m

현재 날씨관측

예보는 22분 전, 22:53시(UTC)에 발표되었습니다.
북동7kt, 순간 최대 풍속 17kt
온도 25°C
습도 50%
기압 1017 hPa
시정: 16.1km
고도 4500ft 상공 구름 조금
고도 25000ft 상공 구름 조금

METAR: KMIA 232253Z 05007G17KT 10SM FEW045 FEW250 25/14 A3003 RMK AO2 SLP168 T02500139

시각: 19:15 (23:15 UTC)

예보

예보는 1 시간 33분 전, 21:42시(UTC)에 발표되었습니다.
예보 대상 시간: 23일 22시부터 24일 24시까지 (UTC)
동북동11kt
시정: 10km
고도 4500ft 상공 구름 보통
24일 0200시부터 (UTC)
동북동3kt
시정: 10km
고도 4000ft 상공 구름 조금
24일 1500시부터 (UTC)
10kt
시정: 10km
고도 4000ft 상공 구름 조금

TAF: KMIA 232142Z 2322/2424 06011KT P6SM SCT045 FM240200 07003KT P6SM FEW040 FM241500 09010KT P6SM FEW040

4,000개 이상의 공항 관측 자료 및 예보 (METAR 및 TAF 보고).

지도상에서 검색 가능한 기상관측소가 노란 점과 빨간 점으로 표시되어 있습니다.

기상관측소 명을 보려면 표시 위로 마우스를 이동하세요.

날씨 관측과 예보를 보려면 클릭하세요.

지도 변경 : 확대하려면 엑스 표시가 있는 녹색 버튼, 축소하려면 빼기 표시가 있는 녹색 버튼, 다음 페이지의 지도를 보려면 녹색 화살표를 클릭하세요.


METAR-TAF: